Time;durP1;ratioP1;P1;durP2;ratioP2;P2;SDS_P1;SDS_P2;PMS_P1;PMS_P2;Temp;Humidity;BMP_temperature;BMP_pressure;BME280_temperature;BME280_humidity;BME280_pressure;Samples;Min_cycle;Max_cycle;Signal;HPM_P1;HPM_P2
2023/09/01 00:02:06;;;;;;;6.78;3.30;;;;;;;;;;5075761;28;20039;-41
2023/09/01 00:04:32;;;;;;;11.45;3.90;;;;;;;;;;5071971;28;20043;-44
2023/09/01 00:06:58;;;;;;;12.57;3.58;;;;;;;;;;5074612;28;20024;-42
2023/09/01 00:09:24;;;;;;;8.15;3.28;;;;;;;;;;5083419;28;20039;-45
2023/09/01 00:11:49;;;;;;;10.60;3.58;;;;;;;;;;5066546;28;20028;-47
2023/09/01 00:14:14;;;;;;;8.10;3.15;;;;;;;;;;5073931;28;20047;-41
2023/09/01 00:16:40;;;;;;;9.00;3.25;;;;;;;;;;5077688;28;20060;-42
2023/09/01 00:19:05;;;;;;;10.02;3.58;;;;;;;;;;5074018;28;20040;-43
2023/09/01 00:21:32;;;;;;;8.73;3.75;;;;;;;;;;5075927;28;20054;-43
2023/09/01 00:23:57;;;;;;;12.30;3.97;;;;;;;;;;5074565;28;20032;-41
2023/09/01 00:26:23;;;;;;;13.40;3.70;;;;;;;;;;5076444;28;20024;-46
2023/09/01 00:28:48;;;;;;;8.40;3.35;;;;;;;;;;5075007;28;20036;-41
2023/09/01 00:31:16;;;;;;;10.00;3.63;;;;;;;;;;5076031;28;20032;-42
2023/09/01 00:33:42;;;;;;;10.25;2.85;;;;;;;;;;5076919;28;20470;-40
2023/09/01 00:36:07;;;;;;;7.95;3.33;;;;;;;;;;5070942;28;20048;-41
2023/09/01 00:38:32;;;;;;;10.52;3.20;;;;;;;;;;5071299;28;20039;-41
2023/09/01 00:40:58;;;;;;;7.90;3.15;;;;;;;;;;5075287;28;20033;-44
2023/09/01 00:43:23;;;;;;;7.13;3.15;;;;;;;;;;5078981;28;20032;-42
2023/09/01 00:45:49;;;;;;;7.80;3.13;;;;;;;;;;5075301;28;20089;-41
2023/09/01 00:48:15;;;;;;;6.32;2.90;;;;;;;;;;5076236;28;20051;-41
2023/09/01 00:50:42;;;;;;;8.45;3.00;;;;;;;;;;5075507;28;20032;-42
2023/09/01 00:53:08;;;;;;;5.00;2.92;;;;;;;;;;5074509;28;20020;-44
2023/09/01 00:55:35;;;;;;;7.78;3.20;;;;;;;;;;5071341;28;20036;-42
2023/09/01 00:58:01;;;;;;;14.48;3.58;;;;;;;;;;5072092;28;20516;-45
2023/09/01 01:00:28;;;;;;;7.85;2.97;;;;;;;;;;5079846;28;20033;-43
2023/09/01 01:02:54;;;;;;;7.68;3.10;;;;;;;;;;5076848;28;20027;-42
2023/09/01 01:05:45;;;;;;;9.25;3.38;;;;;;;;;;5074772;28;20067;-44
2023/09/01 01:08:34;;;;;;;10.15;2.90;;;;;;;;;;5073167;28;20028;-46
2023/09/01 01:11:14;;;;;;;9.63;3.40;;;;;;;;;;5075707;28;20115;-42
2023/09/01 01:13:48;;;;;;;9.57;2.75;;;;;;;;;;5075497;28;20096;-41
2023/09/01 01:16:16;;;;;;;13.07;3.15;;;;;;;;;;5074494;28;20072;-42
2023/09/01 01:18:43;;;;;;;8.75;2.88;;;;;;;;;;5075457;28;20030;-42
2023/09/01 01:21:11;;;;;;;7.47;2.92;;;;;;;;;;5074610;28;20049;-42
2023/09/01 01:23:38;;;;;;;12.07;3.03;;;;;;;;;;5078805;28;20115;-43
2023/09/01 01:26:05;;;;;;;9.98;3.03;;;;;;;;;;5064059;28;20075;-41
2023/09/01 01:28:30;;;;;;;7.93;3.10;;;;;;;;;;5075108;28;20036;-43
2023/09/01 01:30:55;;;;;;;10.15;3.40;;;;;;;;;;5070861;28;20048;-46
2023/09/01 01:33:46;;;;;;;10.68;3.95;;;;;;;;;;5075531;28;20433;-42
2023/09/01 01:36:29;;;;;;;7.97;3.38;;;;;;;;;;5073537;28;20052;-43
2023/09/01 01:39:04;;;;;;;8.98;3.40;;;;;;;;;;5070027;28;20040;-46
2023/09/01 01:41:39;;;;;;;4.82;2.60;;;;;;;;;;5066942;28;20367;-42
2023/09/01 01:44:06;;;;;;;6.68;3.03;;;;;;;;;;5073943;28;20040;-44
2023/09/01 01:46:33;;;;;;;12.73;3.05;;;;;;;;;;5074181;28;20038;-44
2023/09/01 01:48:58;;;;;;;7.32;3.28;;;;;;;;;;5076036;28;20024;-46
2023/09/01 01:51:24;;;;;;;7.47;3.00;;;;;;;;;;5069779;28;20027;-41
2023/09/01 01:53:49;;;;;;;8.25;3.22;;;;;;;;;;5072791;28;20039;-41
2023/09/01 01:56:15;;;;;;;9.93;3.60;;;;;;;;;;5079158;28;20024;-40
2023/09/01 01:58:41;;;;;;;9.82;3.22;;;;;;;;;;5077384;28;20511;-41
2023/09/01 02:01:07;;;;;;;8.30;3.58;;;;;;;;;;5072479;28;20031;-43
2023/09/01 02:03:32;;;;;;;11.40;3.30;;;;;;;;;;5075902;28;20116;-44
2023/09/01 02:05:57;;;;;;;10.45;3.45;;;;;;;;;;5075522;28;20409;-42
2023/09/01 02:08:23;;;;;;;7.95;3.13;;;;;;;;;;5079157;28;20499;-42
2023/09/01 02:10:48;;;;;;;8.52;3.40;;;;;;;;;;5078160;28;20520;-43
2023/09/01 02:13:14;;;;;;;6.88;3.10;;;;;;;;;;5074218;28;20100;-43
2023/09/01 02:15:39;;;;;;;11.93;3.30;;;;;;;;;;5073744;28;20505;-43
2023/09/01 02:18:08;;;;;;;9.73;3.25;;;;;;;;;;5069875;28;20020;-41
2023/09/01 02:20:37;;;;;;;10.95;3.30;;;;;;;;;;5069453;28;20032;-42
2023/09/01 02:23:02;;;;;;;11.07;4.05;;;;;;;;;;5084870;28;20024;-42
2023/09/01 02:25:28;;;;;;;9.70;3.63;;;;;;;;;;5083003;28;20039;-43
2023/09/01 02:27:53;;;;;;;12.00;3.72;;;;;;;;;;5074933;28;20037;-43
2023/09/01 02:30:18;;;;;;;6.72;3.58;;;;;;;;;;5077769;28;20040;-43
2023/09/01 02:32:44;;;;;;;9.73;3.42;;;;;;;;;;5078316;28;20040;-46
2023/09/01 02:35:09;;;;;;;13.73;4.03;;;;;;;;;;5075085;28;20090;-41
2023/09/01 02:37:36;;;;;;;8.05;3.58;;;;;;;;;;5075999;28;20040;-41
2023/09/01 02:40:10;;;;;;;12.98;3.78;;;;;;;;;;5078109;28;20098;-44
2023/09/01 02:42:39;;;;;;;10.45;3.50;;;;;;;;;;5076013;28;20068;-44
2023/09/01 02:45:07;;;;;;;10.77;3.20;;;;;;;;;;5073906;28;20442;-42
2023/09/01 02:47:33;;;;;;;12.93;3.45;;;;;;;;;;5078652;28;20111;-42
2023/09/01 02:49:58;;;;;;;8.30;3.63;;;;;;;;;;5074179;28;20032;-42
2023/09/01 02:52:24;;;;;;;12.27;3.28;;;;;;;;;;5075228;28;20031;-46
2023/09/01 02:54:49;;;;;;;8.80;3.83;;;;;;;;;;5077997;28;20032;-41
2023/09/01 02:57:14;;;;;;;12.60;3.70;;;;;;;;;;5094545;28;20035;-41
2023/09/01 02:59:40;;;;;;;8.50;3.10;;;;;;;;;;5076289;28;20052;-40
2023/09/01 03:02:05;;;;;;;16.77;3.80;;;;;;;;;;5078093;28;20032;-40
2023/09/01 03:04:31;;;;;;;10.65;3.40;;;;;;;;;;5077413;28;20051;-40
2023/09/01 03:06:59;;;;;;;8.48;3.13;;;;;;;;;;5077468;28;20103;-42
2023/09/01 03:09:24;;;;;;;16.85;3.80;;;;;;;;;;5075094;28;20037;-41
2023/09/01 03:11:50;;;;;;;12.18;3.88;;;;;;;;;;5075595;28;20027;-42
2023/09/01 03:14:15;;;;;;;9.45;3.85;;;;;;;;;;5067120;28;20064;-42
2023/09/01 03:16:41;;;;;;;11.82;3.90;;;;;;;;;;5071826;28;20059;-43
2023/09/01 03:19:07;;;;;;;12.88;4.03;;;;;;;;;;5076342;28;20036;-43
2023/09/01 03:21:32;;;;;;;16.73;3.75;;;;;;;;;;5075079;28;20146;-41
2023/09/01 03:23:58;;;;;;;20.80;3.85;;;;;;;;;;5077050;28;20025;-46
2023/09/01 03:26:24;;;;;;;9.38;3.88;;;;;;;;;;5074460;28;20479;-45
2023/09/01 03:28:50;;;;;;;13.38;3.40;;;;;;;;;;5080493;28;20097;-42
2023/09/01 03:31:15;;;;;;;7.60;4.05;;;;;;;;;;5077441;28;20603;-44
2023/09/01 03:33:42;;;;;;;17.20;3.88;;;;;;;;;;5070494;28;20033;-42
2023/09/01 03:36:10;;;;;;;11.00;3.70;;;;;;;;;;5076185;28;20059;-44
2023/09/01 03:38:36;;;;;;;10.10;3.53;;;;;;;;;;5077382;28;20054;-42
2023/09/01 03:41:05;;;;;;;10.98;4.25;;;;;;;;;;5065550;28;20068;-44
2023/09/01 03:43:32;;;;;;;7.85;3.90;;;;;;;;;;5075632;28;20036;-43
2023/09/01 03:45:57;;;;;;;11.07;4.40;;;;;;;;;;5074487;28;20037;-41
2023/09/01 03:48:24;;;;;;;6.90;3.90;;;;;;;;;;5077238;28;20035;-42
2023/09/01 03:51:10;;;;;;;8.27;3.92;;;;;;;;;;5076247;28;20029;-42
2023/09/01 03:53:36;;;;;;;7.90;4.15;;;;;;;;;;5071115;28;20595;-42
2023/09/01 03:56:12;;;;;;;10.93;4.85;;;;;;;;;;5066422;28;20498;-43
2023/09/01 03:58:38;;;;;;;11.07;4.32;;;;;;;;;;5071986;28;20125;-44
2023/09/01 04:01:11;;;;;;;8.48;4.82;;;;;;;;;;5064328;28;20044;-44
2023/09/01 04:03:41;;;;;;;13.32;5.35;;;;;;;;;;5071691;28;20059;-41
2023/09/01 04:06:06;;;;;;;15.10;6.40;;;;;;;;;;5064725;28;20040;-45
2023/09/01 04:08:34;;;;;;;15.20;6.80;;;;;;;;;;5075647;28;20028;-43
2023/09/01 04:11:00;;;;;;;13.52;6.47;;;;;;;;;;5076743;28;20036;-42
2023/09/01 04:13:26;;;;;;;15.60;7.03;;;;;;;;;;5075622;28;20103;-44
2023/09/01 04:15:51;;;;;;;18.27;7.30;;;;;;;;;;5076037;28;20053;-42
2023/09/01 04:18:17;;;;;;;18.17;7.30;;;;;;;;;;5075417;28;20021;-44
2023/09/01 04:20:49;;;;;;;21.58;7.53;;;;;;;;;;5070432;28;20037;-48
2023/09/01 04:23:15;;;;;;;21.65;8.10;;;;;;;;;;5075207;28;20092;-40
2023/09/01 04:25:43;;;;;;;26.08;8.52;;;;;;;;;;5072233;28;20637;-41
2023/09/01 04:28:09;;;;;;;19.80;8.48;;;;;;;;;;5078246;28;20390;-46
2023/09/01 04:30:34;;;;;;;19.27;8.27;;;;;;;;;;5075742;28;20043;-44
2023/09/01 04:32:59;;;;;;;22.90;7.82;;;;;;;;;;5076266;28;20024;-44
2023/09/01 04:35:25;;;;;;;21.75;7.93;;;;;;;;;;5074743;28;20082;-42
2023/09/01 04:37:50;;;;;;;17.50;8.40;;;;;;;;;;5074566;28;20063;-46
2023/09/01 04:40:16;;;;;;;20.75;7.55;;;;;;;;;;5077015;28;20690;-42
2023/09/01 04:42:41;;;;;;;19.30;7.03;;;;;;;;;;5072407;28;20707;-42
2023/09/01 04:45:07;;;;;;;14.73;6.90;;;;;;;;;;5072756;28;20543;-42
2023/09/01 04:47:32;;;;;;;18.23;7.18;;;;;;;;;;5072745;28;20017;-42
2023/09/01 04:49:58;;;;;;;18.75;6.53;;;;;;;;;;5071920;28;20557;-42
2023/09/01 04:52:23;;;;;;;19.60;6.13;;;;;;;;;;5082832;28;20447;-41
2023/09/01 04:54:48;;;;;;;20.00;6.25;;;;;;;;;;5074378;28;20118;-42
2023/09/01 04:57:14;;;;;;;10.13;5.60;;;;;;;;;;5072260;28;20028;-45
2023/09/01 04:59:39;;;;;;;14.50;6.53;;;;;;;;;;5073814;28;20055;-42
2023/09/01 05:02:06;;;;;;;13.50;5.43;;;;;;;;;;5066861;28;20029;-42
2023/09/01 05:04:32;;;;;;;15.60;6.53;;;;;;;;;;5073527;28;20090;-45
2023/09/01 05:06:57;;;;;;;11.02;6.20;;;;;;;;;;5075277;28;20016;-45
2023/09/01 05:09:23;;;;;;;11.52;6.00;;;;;;;;;;5084583;28;20032;-41
2023/09/01 05:11:48;;;;;;;11.13;6.00;;;;;;;;;;5074832;28;20031;-44
2023/09/01 05:14:14;;;;;;;17.17;6.47;;;;;;;;;;5074648;28;20048;-46
2023/09/01 05:16:39;;;;;;;16.08;6.22;;;;;;;;;;5071559;28;20020;-41
2023/09/01 05:19:05;;;;;;;15.30;6.50;;;;;;;;;;5071344;28;20044;-42
2023/09/01 05:21:30;;;;;;;13.32;6.00;;;;;;;;;;5072636;28;20024;-43
2023/09/01 05:23:55;;;;;;;12.70;5.45;;;;;;;;;;5080029;28;20033;-41
2023/09/01 05:26:21;;;;;;;11.80;5.10;;;;;;;;;;5074543;28;20028;-43
2023/09/01 05:28:46;;;;;;;12.68;4.55;;;;;;;;;;5083979;28;20033;-45
2023/09/01 05:31:11;;;;;;;8.80;4.65;;;;;;;;;;5073553;28;20096;-45
2023/09/01 05:33:37;;;;;;;8.82;4.78;;;;;;;;;;5074036;28;20024;-42
2023/09/01 05:36:03;;;;;;;14.35;5.47;;;;;;;;;;5069944;28;20029;-44
2023/09/01 05:38:28;;;;;;;12.70;5.13;;;;;;;;;;5071942;28;20367;-42
2023/09/01 05:41:02;;;;;;;13.85;4.43;;;;;;;;;;5072354;28;20048;-44
2023/09/01 05:43:29;;;;;;;11.75;5.30;;;;;;;;;;5070643;28;20025;-42
2023/09/01 05:45:54;;;;;;;10.00;4.93;;;;;;;;;;5069334;28;20037;-41
2023/09/01 05:48:20;;;;;;;11.02;5.15;;;;;;;;;;5068148;28;21796;-43
2023/09/01 05:50:45;;;;;;;10.35;4.35;;;;;;;;;;5070559;28;20041;-44
2023/09/01 05:53:10;;;;;;;8.18;4.45;;;;;;;;;;5073078;28;20031;-44
2023/09/01 05:55:37;;;;;;;17.73;5.18;;;;;;;;;;5071370;28;20044;-41
2023/09/01 05:58:03;;;;;;;11.30;4.70;;;;;;;;;;5071394;28;20048;-42
2023/09/01 06:00:29;;;;;;;10.32;4.50;;;;;;;;;;5073150;28;20489;-44
2023/09/01 06:02:55;;;;;;;12.73;5.47;;;;;;;;;;5073729;28;20041;-41
2023/09/01 06:05:21;;;;;;;10.90;4.80;;;;;;;;;;5074270;28;20039;-43
2023/09/01 06:07:47;;;;;;;10.68;5.03;;;;;;;;;;5078302;28;20592;-41
2023/09/01 06:10:12;;;;;;;12.60;5.28;;;;;;;;;;5072518;28;20043;-45
2023/09/01 06:12:38;;;;;;;9.77;4.47;;;;;;;;;;5072687;28;21216;-47
2023/09/01 06:15:05;;;;;;;13.18;4.60;;;;;;;;;;5071204;28;20390;-43
2023/09/01 06:17:30;;;;;;;15.85;5.55;;;;;;;;;;5060342;28;20037;-46
2023/09/01 06:19:56;;;;;;;9.48;4.40;;;;;;;;;;5068888;28;20037;-41
2023/09/01 06:22:21;;;;;;;15.85;4.82;;;;;;;;;;5070011;28;20031;-41
2023/09/01 06:24:47;;;;;;;9.18;4.28;;;;;;;;;;5068980;28;20051;-43
2023/09/01 06:27:13;;;;;;;10.20;4.75;;;;;;;;;;5074654;28;20035;-44
2023/09/01 06:29:38;;;;;;;14.15;5.13;;;;;;;;;;5072317;28;20033;-42
2023/09/01 06:32:04;;;;;;;9.90;4.70;;;;;;;;;;5074705;28;20029;-42
2023/09/01 06:34:30;;;;;;;20.65;5.35;;;;;;;;;;5071916;28;20028;-46
2023/09/01 06:36:56;;;;;;;15.73;4.40;;;;;;;;;;5069853;28;20066;-43
2023/09/01 06:39:22;;;;;;;11.48;4.43;;;;;;;;;;5065595;28;20070;-43
2023/09/01 06:41:47;;;;;;;11.35;4.70;;;;;;;;;;5078044;28;20032;-44
2023/09/01 06:44:13;;;;;;;10.55;4.72;;;;;;;;;;5077237;28;20402;-43
2023/09/01 06:46:38;;;;;;;15.10;4.88;;;;;;;;;;5084915;28;20039;-43
2023/09/01 06:49:04;;;;;;;8.68;3.90;;;;;;;;;;5076410;28;20045;-46
2023/09/01 06:51:29;;;;;;;9.32;3.72;;;;;;;;;;5077940;28;20059;-44
2023/09/01 06:53:55;;;;;;;9.45;3.63;;;;;;;;;;5077893;28;20055;-42
2023/09/01 06:56:21;;;;;;;12.60;3.95;;;;;;;;;;5078885;28;20046;-42
2023/09/01 06:58:46;;;;;;;6.13;3.38;;;;;;;;;;5076261;28;20048;-43
2023/09/01 07:01:12;;;;;;;8.10;3.60;;;;;;;;;;5075405;28;20036;-44
2023/09/01 07:03:38;;;;;;;12.48;3.40;;;;;;;;;;5075441;28;20381;-43
2023/09/01 07:06:04;;;;;;;7.18;3.45;;;;;;;;;;5076792;28;20036;-49
2023/09/01 07:08:29;;;;;;;11.35;4.65;;;;;;;;;;5077964;28;20021;-47
2023/09/01 07:11:06;;;;;;;9.75;3.58;;;;;;;;;;5073292;28;20040;-44
2023/09/01 07:13:32;;;;;;;14.43;3.20;;;;;;;;;;5076477;28;20458;-42
2023/09/01 07:15:57;;;;;;;8.80;3.42;;;;;;;;;;5076438;28;20044;-45
2023/09/01 07:18:23;;;;;;;7.00;3.15;;;;;;;;;;5074819;28;20051;-40
2023/09/01 07:20:50;;;;;;;7.05;3.10;;;;;;;;;;5076160;28;20032;-44
2023/09/01 07:23:16;;;;;;;7.95;2.90;;;;;;;;;;5073303;28;20048;-43
2023/09/01 07:25:44;;;;;;;7.80;3.40;;;;;;;;;;5077427;28;20032;-42
2023/09/01 07:28:12;;;;;;;12.90;3.20;;;;;;;;;;5077490;28;20024;-42
2023/09/01 07:30:38;;;;;;;9.07;3.25;;;;;;;;;;5077018;28;20056;-42
2023/09/01 07:33:04;;;;;;;7.10;2.92;;;;;;;;;;5071380;28;20035;-41
2023/09/01 07:35:29;;;;;;;4.90;2.83;;;;;;;;;;5071549;28;20040;-41
2023/09/01 07:37:57;;;;;;;9.90;3.28;;;;;;;;;;5072335;28;20039;-44
2023/09/01 07:40:23;;;;;;;9.13;3.08;;;;;;;;;;5072495;28;20055;-42
2023/09/01 07:42:48;;;;;;;7.97;2.97;;;;;;;;;;5077764;28;20025;-41
2023/09/01 07:45:14;;;;;;;10.32;3.13;;;;;;;;;;5077288;28;20174;-43
2023/09/01 07:47:39;;;;;;;9.27;3.00;;;;;;;;;;5077244;28;20020;-39
2023/09/01 07:50:06;;;;;;;7.75;2.72;;;;;;;;;;5074776;28;20128;-44
2023/09/01 07:52:31;;;;;;;5.53;2.65;;;;;;;;;;5074378;28;20035;-41
2023/09/01 07:54:57;;;;;;;15.40;3.22;;;;;;;;;;5074719;28;20040;-41
2023/09/01 07:57:22;;;;;;;11.45;3.63;;;;;;;;;;5079934;28;20111;-39
2023/09/01 07:59:47;;;;;;;4.30;2.70;;;;;;;;;;5074086;28;20075;-40
2023/09/01 08:02:13;;;;;;;5.97;2.80;;;;;;;;;;5073872;28;20028;-42
2023/09/01 08:04:38;;;;;;;6.25;3.42;;;;;;;;;;5081670;28;20086;-40
2023/09/01 08:07:04;;;;;;;5.35;2.50;;;;;;;;;;5073151;28;20013;-42
2023/09/01 08:09:29;;;;;;;9.35;3.03;;;;;;;;;;5075724;28;20032;-40
2023/09/01 08:11:55;;;;;;;10.55;3.00;;;;;;;;;;5075929;28;20023;-41
2023/09/01 08:14:21;;;;;;;6.30;2.35;;;;;;;;;;5077014;28;20044;-42
2023/09/01 08:16:47;;;;;;;10.70;2.80;;;;;;;;;;5074554;28;20036;-41
2023/09/01 08:19:13;;;;;;;7.43;3.75;;;;;;;;;;5076237;28;20102;-40
2023/09/01 08:21:38;;;;;;;12.00;3.03;;;;;;;;;;5074254;28;20024;-42
2023/09/01 08:24:04;;;;;;;12.80;3.20;;;;;;;;;;5074895;28;20052;-43
2023/09/01 08:26:31;;;;;;;7.28;3.60;;;;;;;;;;5068570;28;20482;-41
2023/09/01 08:28:56;;;;;;;8.13;2.80;;;;;;;;;;5074201;28;20032;-40
2023/09/01 08:31:22;;;;;;;9.05;2.70;;;;;;;;;;5075647;28;20020;-43
2023/09/01 08:33:47;;;;;;;8.85;3.10;;;;;;;;;;5072063;28;20133;-41
2023/09/01 08:36:13;;;;;;;15.30;3.05;;;;;;;;;;5075083;28;20040;-44
2023/09/01 08:38:38;;;;;;;4.28;2.17;;;;;;;;;;5076403;28;20024;-40
2023/09/01 08:41:05;;;;;;;8.32;2.97;;;;;;;;;;5073507;28;20028;-41
2023/09/01 08:43:35;;;;;;;8.52;2.80;;;;;;;;;;5075201;28;20037;-40
2023/09/01 08:46:03;;;;;;;12.77;2.97;;;;;;;;;;5072646;28;20037;-40
2023/09/01 08:48:30;;;;;;;8.35;2.80;;;;;;;;;;5076325;28;20035;-44
2023/09/01 08:50:55;;;;;;;10.40;2.95;;;;;;;;;;5074325;28;20040;-43
2023/09/01 08:53:21;;;;;;;9.32;2.90;;;;;;;;;;5076367;28;20020;-42
2023/09/01 08:55:48;;;;;;;8.50;2.78;;;;;;;;;;5074841;28;20070;-41
2023/09/01 08:58:13;;;;;;;5.85;2.55;;;;;;;;;;5073398;28;20080;-43
2023/09/01 09:00:39;;;;;;;12.10;3.28;;;;;;;;;;5074805;28;20040;-43
2023/09/01 09:03:05;;;;;;;6.53;2.63;;;;;;;;;;5073405;28;20071;-46
2023/09/01 09:05:32;;;;;;;6.50;2.42;;;;;;;;;;5073291;28;20047;-41
2023/09/01 09:08:04;;;;;;;7.13;3.05;;;;;;;;;;5076261;28;20081;-43
2023/09/01 09:10:46;;;;;;;4.82;2.65;;;;;;;;;;5072164;28;20036;-43
2023/09/01 09:13:21;;;;;;;;;;;;;;;;;;5073632;28;20032;-40
2023/09/01 09:16:08;;;;;;;8.38;2.42;;;;;;;;;;5072980;28;19920;-42
2023/09/01 09:18:34;;;;;;;5.30;2.50;;;;;;;;;;5072529;28;20027;-41
2023/09/01 09:20:59;;;;;;;14.65;3.28;;;;;;;;;;5075344;28;20591;-43
2023/09/01 09:23:45;;;;;;;6.35;2.63;;;;;;;;;;5075885;28;20111;-44
2023/09/01 09:26:11;;;;;;;7.38;2.75;;;;;;;;;;5076181;28;20080;-43
2023/09/01 09:28:36;;;;;;;7.25;2.35;;;;;;;;;;5079528;28;20032;-44
2023/09/01 09:31:02;;;;;;;8.50;2.55;;;;;;;;;;5075064;28;20066;-43
2023/09/01 09:33:33;;;;;;;8.18;2.47;;;;;;;;;;5074123;28;20111;-44
2023/09/01 09:35:59;;;;;;;5.90;2.47;;;;;;;;;;5055929;28;20398;-44
2023/09/01 09:38:42;;;;;;;8.43;2.38;;;;;;;;;;5074444;28;20021;-45
2023/09/01 09:41:07;;;;;;;7.78;2.85;;;;;;;;;;5071122;28;20041;-40
2023/09/01 09:43:47;;;;;;;11.60;2.65;;;;;;;;;;5069404;28;20359;-44
2023/09/01 09:46:14;;;;;;;7.00;2.40;;;;;;;;;;5073967;28;20053;-43
2023/09/01 09:48:41;;;;;;;4.78;2.40;;;;;;;;;;5074186;28;20073;-42
2023/09/01 09:51:08;;;;;;;6.45;2.15;;;;;;;;;;5075164;28;20045;-41
2023/09/01 09:53:38;;;;;;;7.38;2.45;;;;;;;;;;5074941;28;20021;-43
2023/09/01 09:56:18;;;;;;;11.93;2.85;;;;;;;;;;5072345;28;20185;-41
2023/09/01 09:58:47;;;;;;;5.35;2.20;;;;;;;;;;5073528;28;20040;-43
2023/09/01 10:01:22;;;;;;;5.10;2.65;;;;;;;;;;5073564;28;20029;-42
2023/09/01 10:03:47;;;;;;;4.88;2.72;;;;;;;;;;5072619;28;20028;-47
2023/09/01 10:06:17;;;;;;;6.60;2.20;;;;;;;;;;5072871;28;20032;-41
2023/09/01 10:08:44;;;;;;;5.72;2.17;;;;;;;;;;5067102;28;20110;-34
2023/09/01 10:11:12;;;;;;;6.00;2.50;;;;;;;;;;5073733;28;20032;-45
2023/09/01 10:13:39;;;;;;;9.98;2.28;;;;;;;;;;5072736;28;20035;-45
2023/09/01 10:16:05;;;;;;;4.65;2.22;;;;;;;;;;5075321;28;20044;-45
2023/09/01 10:18:33;;;;;;;6.53;2.53;;;;;;;;;;5078281;28;20077;-42
2023/09/01 10:20:59;;;;;;;10.85;2.65;;;;;;;;;;5077394;28;20093;-46
2023/09/01 10:23:27;;;;;;;6.13;2.58;;;;;;;;;;5072512;28;20089;-42
2023/09/01 10:26:11;;;;;;;6.55;2.22;;;;;;;;;;5079844;28;20036;-46
2023/09/01 10:28:57;;;;;;;10.50;2.85;;;;;;;;;;5078601;28;20085;-42
2023/09/01 10:31:23;;;;;;;6.45;2.80;;;;;;;;;;5077814;28;20097;-45
2023/09/01 10:34:14;;;;;;;10.63;2.53;;;;;;;;;;5078844;28;20023;-42
2023/09/01 10:36:41;;;;;;;5.88;2.50;;;;;;;;;;5069107;28;20051;-42
2023/09/01 10:39:19;;;;;;;6.00;2.60;;;;;;;;;;5077232;28;20039;-42
2023/09/01 10:41:53;;;;;;;7.07;2.47;;;;;;;;;;5075828;28;20024;-43
2023/09/01 10:44:18;;;;;;;8.27;2.47;;;;;;;;;;5076672;28;20047;-42
2023/09/01 10:46:44;;;;;;;10.23;2.30;;;;;;;;;;5078940;28;20020;-45
2023/09/01 10:49:10;;;;;;;8.40;2.53;;;;;;;;;;5073358;28;20545;-47
2023/09/01 10:51:37;;;;;;;7.35;2.20;;;;;;;;;;5069228;28;20029;-44
2023/09/01 10:54:23;;;;;;;9.48;2.47;;;;;;;;;;5068367;28;20037;-43
2023/09/01 10:56:57;;;;;;;6.10;2.50;;;;;;;;;;5058055;28;20489;-44
2023/09/01 10:59:35;;;;;;;6.15;2.42;;;;;;;;;;5077411;28;20041;-43
2023/09/01 11:02:21;;;;;;;7.32;2.53;;;;;;;;;;5073095;28;20428;-44
2023/09/01 11:04:47;;;;;;;7.82;2.40;;;;;;;;;;5073328;28;20048;-43
2023/09/01 11:07:13;;;;;;;5.47;2.47;;;;;;;;;;5077972;28;20036;-46
2023/09/01 11:09:44;;;;;;;4.47;2.22;;;;;;;;;;5076383;28;20116;-46
2023/09/01 11:12:12;;;;;;;6.32;2.50;;;;;;;;;;5066297;28;20031;-44
2023/09/01 11:14:58;;;;;;;4.13;2.40;;;;;;;;;;5074837;28;20053;-44
2023/09/01 11:17:43;;;;;;;2.83;2.03;;;;;;;;;;5070936;28;20027;-43
2023/09/01 11:20:10;;;;;;;3.85;2.47;;;;;;;;;;5077519;28;20108;-44
2023/09/01 11:22:41;;;;;;;5.38;2.42;;;;;;;;;;5067651;28;20056;-44
2023/09/01 11:25:09;;;;;;;6.28;2.30;;;;;;;;;;5074352;28;20045;-42
2023/09/01 11:27:35;;;;;;;6.53;2.20;;;;;;;;;;5078208;28;20032;-48
2023/09/01 11:30:03;;;;;;;3.33;1.85;;;;;;;;;;5074390;28;20033;-45
2023/09/01 11:32:29;;;;;;;3.72;1.60;;;;;;;;;;5077075;28;20025;-44
2023/09/01 11:34:54;;;;;;;5.00;2.10;;;;;;;;;;5064676;28;20402;-42
2023/09/01 11:37:39;;;;;;;6.60;2.20;;;;;;;;;;5076010;28;20063;-45
2023/09/01 11:40:08;;;;;;;7.97;2.13;;;;;;;;;;5073506;28;20036;-50
2023/09/01 11:42:36;;;;;;;5.18;2.28;;;;;;;;;;5077212;28;20107;-44
2023/09/01 11:45:09;;;;;;;6.85;2.75;;;;;;;;;;5077528;28;20119;-44
2023/09/01 11:47:35;;;;;;;5.30;2.17;;;;;;;;;;5074935;28;20023;-44
2023/09/01 11:50:01;;;;;;;7.07;2.20;;;;;;;;;;5077441;28;20064;-42
2023/09/01 11:52:27;;;;;;;4.38;2.35;;;;;;;;;;5075607;28;20103;-45
2023/09/01 11:54:52;;;;;;;5.43;2.58;;;;;;;;;;5076667;28;20038;-44
2023/09/01 11:57:18;;;;;;;5.53;2.60;;;;;;;;;;5075786;28;20024;-44
2023/09/01 11:59:48;;;;;;;5.82;2.45;;;;;;;;;;5075927;28;20047;-44
2023/09/01 12:02:14;;;;;;;4.75;2.63;;;;;;;;;;5074550;28;20032;-43
2023/09/01 12:04:50;;;;;;;5.22;2.60;;;;;;;;;;5072047;28;20041;-46
2023/09/01 12:07:27;;;;;;;7.28;2.40;;;;;;;;;;5080019;28;20093;-47
2023/09/01 12:09:53;;;;;;;6.50;2.85;;;;;;;;;;5075087;28;20132;-47
2023/09/01 12:12:19;;;;;;;4.13;2.17;;;;;;;;;;5077117;28;20059;-46
2023/09/01 12:14:45;;;;;;;3.60;2.08;;;;;;;;;;5074572;28;20446;-45
2023/09/01 12:17:18;;;;;;;4.68;2.00;;;;;;;;;;5070381;28;20039;-43
2023/09/01 12:19:50;;;;;;;4.60;2.53;;;;;;;;;;5074727;28;20116;-45
2023/09/01 12:22:16;;;;;;;4.20;1.92;;;;;;;;;;5076989;28;20477;-44
2023/09/01 12:24:55;;;;;;;2.47;1.75;;;;;;;;;;5071017;28;20036;-42
2023/09/01 12:27:21;;;;;;;5.63;2.10;;;;;;;;;;5069470;28;20538;-46
2023/09/01 12:29:47;;;;;;;8.02;2.40;;;;;;;;;;5071930;28;20048;-44
2023/09/01 12:32:13;;;;;;;4.75;2.08;;;;;;;;;;5075821;28;20052;-43
2023/09/01 12:34:39;;;;;;;5.40;1.95;;;;;;;;;;5075082;28;20029;-44
2023/09/01 12:37:06;;;;;;;3.67;1.90;;;;;;;;;;5075281;28;20025;-44
2023/09/01 12:39:31;;;;;;;2.90;2.20;;;;;;;;;;5073747;28;20163;-43
2023/09/01 12:41:57;;;;;;;4.05;2.13;;;;;;;;;;5074996;28;20079;-43
2023/09/01 12:44:22;;;;;;;8.02;3.13;;;;;;;;;;5065459;28;20041;-45
2023/09/01 12:46:47;;;;;;;9.60;2.08;;;;;;;;;;5074957;28;20040;-44
2023/09/01 12:49:13;;;;;;;5.28;2.03;;;;;;;;;;5075208;28;20040;-45
2023/09/01 12:51:41;;;;;;;6.18;2.00;;;;;;;;;;5075670;28;20063;-44
2023/09/01 12:54:06;;;;;;;4.90;1.85;;;;;;;;;;5070765;28;20040;-45
2023/09/01 12:56:33;;;;;;;3.10;1.95;;;;;;;;;;5074055;28;20054;-42
2023/09/01 12:58:58;;;;;;;5.65;1.90;;;;;;;;;;5074232;28;20588;-45
2023/09/01 13:01:24;;;;;;;7.38;2.22;;;;;;;;;;5074014;28;20052;-45
2023/09/01 13:03:49;;;;;;;5.18;2.05;;;;;;;;;;5075088;28;20033;-43
2023/09/01 13:06:14;;;;;;;5.60;2.25;;;;;;;;;;5075524;28;20032;-44
2023/09/01 13:08:41;;;;;;;3.58;2.20;;;;;;;;;;5072738;28;20024;-44
2023/09/01 13:11:09;;;;;;;6.25;1.92;;;;;;;;;;5072992;28;20045;-43
2023/09/01 13:13:38;;;;;;;7.32;1.92;;;;;;;;;;5072866;28;20413;-45
2023/09/01 13:16:04;;;;;;;4.25;2.05;;;;;;;;;;5074798;28;20039;-43
2023/09/01 13:18:29;;;;;;;5.00;1.67;;;;;;;;;;5058041;28;20080;-44
2023/09/01 13:20:54;;;;;;;5.03;2.20;;;;;;;;;;5071365;28;20039;-45
2023/09/01 13:23:20;;;;;;;3.72;1.85;;;;;;;;;;5074711;28;20025;-42
2023/09/01 13:25:45;;;;;;;5.35;2.00;;;;;;;;;;5070116;28;20036;-44
2023/09/01 13:28:11;;;;;;;3.85;2.50;;;;;;;;;;5069367;28;20081;-44
2023/09/01 13:30:39;;;;;;;7.13;2.20;;;;;;;;;;5074460;28;20036;-43
2023/09/01 13:33:05;;;;;;;5.85;2.72;;;;;;;;;;5073561;28;20394;-42
2023/09/01 13:35:30;;;;;;;7.20;2.72;;;;;;;;;;5073503;28;20029;-45
2023/09/01 13:37:56;;;;;;;5.72;2.40;;;;;;;;;;5073723;28;20032;-45
2023/09/01 13:40:21;;;;;;;4.85;2.17;;;;;;;;;;5074673;28;20036;-44
2023/09/01 13:42:47;;;;;;;4.35;2.00;;;;;;;;;;5074676;28;20029;-45
2023/09/01 13:45:12;;;;;;;4.72;2.03;;;;;;;;;;5071535;28;20072;-43
2023/09/01 13:47:38;;;;;;;8.32;2.33;;;;;;;;;;5073710;28;20107;-44
2023/09/01 13:50:04;;;;;;;3.88;2.05;;;;;;;;;;5075221;28;20036;-41
2023/09/01 13:52:29;;;;;;;6.57;2.55;;;;;;;;;;5073103;28;20048;-45
2023/09/01 13:54:55;;;;;;;2.92;2.35;;;;;;;;;;5073429;28;20067;-47
2023/09/01 13:57:21;;;;;;;3.80;2.30;;;;;;;;;;5069746;28;20057;-45
2023/09/01 13:59:48;;;;;;;4.90;2.17;;;;;;;;;;5070682;28;20068;-42
2023/09/01 14:02:17;;;;;;;7.13;2.20;;;;;;;;;;5072011;28;20028;-41
2023/09/01 14:04:42;;;;;;;4.00;2.30;;;;;;;;;;5081866;28;20099;-46
2023/09/01 14:07:08;;;;;;;4.07;2.40;;;;;;;;;;5069249;28;20461;-46
2023/09/01 14:09:33;;;;;;;3.75;2.50;;;;;;;;;;5074325;28;20446;-48
2023/09/01 14:12:00;;;;;;;5.07;3.30;;;;;;;;;;5074096;28;20024;-45
2023/09/01 14:14:26;;;;;;;4.50;2.88;;;;;;;;;;5063537;28;20047;-46
2023/09/01 14:16:51;;;;;;;3.47;2.88;;;;;;;;;;5075391;28;20055;-41
2023/09/01 14:19:17;;;;;;;6.00;2.72;;;;;;;;;;5072066;28;20533;-44
2023/09/01 14:21:42;;;;;;;3.53;2.55;;;;;;;;;;5061897;28;20028;-45
2023/09/01 14:24:14;;;;;;;4.25;2.35;;;;;;;;;;5065621;28;20144;-42
2023/09/01 14:26:44;;;;;;;5.47;2.38;;;;;;;;;;5074561;28;20052;-45
2023/09/01 14:29:10;;;;;;;3.67;2.20;;;;;;;;;;5073960;28;20110;-43
2023/09/01 14:31:35;;;;;;;4.88;2.80;;;;;;;;;;5073980;28;20029;-43
2023/09/01 14:34:00;;;;;;;4.47;2.10;;;;;;;;;;5069167;28;20058;-43
2023/09/01 14:36:27;;;;;;;5.40;2.20;;;;;;;;;;5075116;28;20547;-45
2023/09/01 14:38:53;;;;;;;4.63;2.45;;;;;;;;;;5073050;28;20115;-45
2023/09/01 14:41:19;;;;;;;6.40;2.50;;;;;;;;;;5074284;28;20385;-41